createdAt,value
2024-02-13T00:00:02.106Z,997.4
2024-02-13T00:01:16.400Z,997.3
2024-02-13T00:02:30.693Z,997.3
2024-02-13T00:03:44.987Z,997.4
2024-02-13T00:04:59.280Z,997.4
2024-02-13T00:06:13.559Z,997.4
2024-02-13T00:07:27.867Z,997.4
2024-02-13T00:08:42.161Z,997.5
2024-02-13T00:09:56.455Z,997.5
2024-02-13T00:11:10.749Z,997.5
2024-02-13T00:12:24.058Z,997.5
2024-02-13T00:13:38.352Z,997.5
2024-02-13T00:14:52.646Z,997.4
2024-02-13T00:16:06.939Z,997.4
2024-02-13T00:17:21.233Z,997.4
2024-02-13T00:18:35.526Z,997.4
2024-02-13T00:19:49.820Z,997.5
2024-02-13T00:21:04.095Z,997.5
2024-02-13T00:22:18.408Z,997.6
2024-02-13T00:23:32.701Z,997.6
2024-02-13T00:24:46.995Z,997.6
2024-02-13T00:26:01.289Z,997.6
2024-02-13T00:27:15.582Z,997.6
2024-02-13T00:28:28.892Z,997.7
2024-02-13T00:29:43.186Z,997.7
2024-02-13T00:30:57.479Z,997.7
2024-02-13T00:32:11.773Z,997.7
2024-02-13T00:33:26.067Z,997.7
2024-02-13T00:34:40.361Z,997.7
2024-02-13T00:35:54.625Z,997.6
2024-02-13T00:37:08.948Z,997.6
2024-02-13T00:38:23.242Z,997.6
2024-02-13T00:39:37.536Z,997.7
2024-02-13T00:40:51.829Z,997.7
2024-02-13T00:42:06.123Z,997.7
2024-02-13T00:43:20.388Z,997.7
2024-02-13T00:44:33.727Z,997.8
2024-02-13T00:45:48.020Z,997.7
2024-02-13T00:47:02.314Z,997.7
2024-02-13T00:48:16.607Z,997.7
2024-02-13T00:49:30.901Z,997.7
2024-02-13T00:50:45.166Z,997.7
2024-02-13T00:51:59.488Z,997.7
2024-02-13T00:53:13.782Z,997.8
2024-02-13T00:54:28.076Z,997.8
2024-02-13T00:55:42.370Z,997.8
2024-02-13T00:56:56.642Z,997.8
2024-02-13T00:58:10.957Z,997.8
2024-02-13T00:59:25.251Z,997.9
2024-02-13T01:00:38.560Z,997.9
2024-02-13T01:01:52.854Z,997.9
2024-02-13T01:03:07.147Z,997.9
2024-02-13T01:04:21.441Z,998
2024-02-13T01:05:35.722Z,998
2024-02-13T01:06:50.029Z,998
2024-02-13T01:08:04.322Z,998
2024-02-13T01:09:18.616Z,998
2024-02-13T01:10:32.909Z,998
2024-02-13T01:11:47.203Z,998.1
2024-02-13T01:13:01.497Z,998.1
2024-02-13T01:14:15.791Z,998.1
2024-02-13T01:15:30.084Z,998.1
2024-02-13T01:16:43.394Z,998.2
2024-02-13T01:17:57.687Z,998.2
2024-02-13T01:19:11.981Z,998.2
2024-02-13T01:20:26.256Z,998.2
2024-02-13T01:21:40.568Z,998.2
2024-02-13T01:22:54.862Z,998.2
2024-02-13T01:24:09.156Z,998.2
2024-02-13T01:25:23.449Z,998.2
2024-02-13T01:26:37.743Z,998.3
2024-02-13T01:27:52.037Z,998.3
2024-02-13T01:29:06.330Z,998.3
2024-02-13T01:30:20.624Z,998.3
2024-02-13T01:31:34.886Z,998.3
2024-02-13T01:32:48.227Z,998.4
2024-02-13T01:34:02.521Z,998.4
2024-02-13T01:35:16.814Z,998.4
2024-02-13T01:36:31.108Z,998.5
2024-02-13T01:37:45.402Z,998.4
2024-02-13T01:38:59.695Z,998.4
2024-02-13T01:40:13.990Z,998.5
2024-02-13T01:41:28.284Z,998.5
2024-02-13T01:42:42.577Z,998.5
2024-02-13T01:43:56.871Z,998.5
2024-02-13T01:45:11.164Z,998.5
2024-02-13T01:46:25.447Z,998.5
2024-02-13T01:47:39.752Z,998.5
2024-02-13T01:48:53.062Z,998.6
2024-02-13T01:50:07.355Z,998.6
2024-02-13T01:51:21.649Z,998.6
2024-02-13T01:52:35.942Z,998.6
2024-02-13T01:53:50.236Z,998.7
2024-02-13T01:55:04.529Z,998.6
2024-02-13T01:56:18.823Z,998.7
2024-02-13T01:57:33.117Z,998.7
2024-02-13T01:58:47.411Z,998.7
2024-02-13T02:00:01.704Z,998.8
2024-02-13T02:01:15.998Z,998.8
2024-02-13T02:02:30.291Z,998.8
2024-02-13T02:03:44.585Z,998.8
2024-02-13T02:04:57.894Z,998.8
2024-02-13T02:06:12.188Z,998.9
2024-02-13T02:07:26.481Z,998.9
2024-02-13T02:08:40.744Z,998.9
2024-02-13T02:09:55.069Z,998.9
2024-02-13T02:11:09.362Z,998.9
2024-02-13T02:12:23.656Z,998.9
2024-02-13T02:13:37.949Z,998.9
2024-02-13T02:14:52.243Z,998.9
2024-02-13T02:16:06.536Z,999
2024-02-13T02:17:20.771Z,999
2024-02-13T02:18:35.124Z,999.1
2024-02-13T02:19:49.417Z,999.1
2024-02-13T02:21:02.727Z,999.1
2024-02-13T02:22:17.021Z,999.1
2024-02-13T02:23:31.314Z,999.1
2024-02-13T02:24:45.608Z,999.1
2024-02-13T02:25:59.901Z,999.1
2024-02-13T02:27:14.195Z,999.1
2024-02-13T02:28:27.510Z,999.2
2024-02-13T02:29:41.803Z,999.2
2024-02-13T02:30:56.097Z,999.2
2024-02-13T02:32:10.391Z,999.2
2024-02-13T02:33:24.684Z,999.2
2024-02-13T02:34:38.978Z,999.3
2024-02-13T02:35:53.271Z,999.3
2024-02-13T02:37:07.565Z,999.3
2024-02-13T02:38:21.858Z,999.3
2024-02-13T02:39:36.152Z,999.3
2024-02-13T02:40:50.446Z,999.3
2024-02-13T02:42:04.739Z,999.3
2024-02-13T02:43:19.033Z,999.3
2024-02-13T02:44:32.342Z,999.3
2024-02-13T02:45:46.636Z,999.3
2024-02-13T02:47:00.930Z,999.3
2024-02-13T02:48:15.223Z,999.4
2024-02-13T02:49:29.517Z,999.4
2024-02-13T02:50:43.810Z,999.4
2024-02-13T02:51:58.104Z,999.4
2024-02-13T02:53:12.398Z,999.4
2024-02-13T02:54:26.691Z,999.5
2024-02-13T02:55:40.985Z,999.5
2024-02-13T02:56:55.278Z,999.5
2024-02-13T02:58:09.572Z,999.5
2024-02-13T02:59:23.865Z,999.6
2024-02-13T03:00:37.122Z,999.6
2024-02-13T03:01:51.418Z,999.6
2024-02-13T03:03:05.763Z,999.6
2024-02-13T03:04:20.056Z,999.6
2024-02-13T03:05:34.350Z,999.7
2024-02-13T03:06:48.643Z,999.7
2024-02-13T03:08:02.937Z,999.7
2024-02-13T03:09:17.230Z,999.7
2024-02-13T03:10:31.524Z,999.7
2024-02-13T03:11:45.817Z,999.7
2024-02-13T03:13:00.111Z,999.8
2024-02-13T03:14:14.405Z,999.8
2024-02-13T03:15:28.698Z,999.8
2024-02-13T03:16:42.008Z,999.8
2024-02-13T03:17:56.301Z,999.9
2024-02-13T03:19:10.595Z,999.9
2024-02-13T03:20:24.888Z,999.9
2024-02-13T03:21:39.182Z,999.9
2024-02-13T03:22:53.475Z,1000
2024-02-13T03:24:07.769Z,1000
2024-02-13T03:25:22.063Z,1000
2024-02-13T03:26:36.356Z,1000
2024-02-13T03:27:50.650Z,1000
2024-02-13T03:29:04.943Z,1000
2024-02-13T03:30:19.237Z,1000.1
2024-02-13T03:31:33.530Z,1000.1
2024-02-13T03:32:46.840Z,1000.1
2024-02-13T03:34:01.134Z,1000.1
2024-02-13T03:35:15.427Z,1000.2
2024-02-13T03:36:29.721Z,1000.2
2024-02-13T03:37:44.015Z,1000.2
2024-02-13T03:38:58.308Z,1000.2
2024-02-13T03:40:12.602Z,1000.2
2024-02-13T03:41:26.895Z,1000.2
2024-02-13T03:42:41.189Z,1000.2
2024-02-13T03:43:55.482Z,1000.3
2024-02-13T03:45:09.776Z,1000.3
2024-02-13T03:46:24.070Z,1000.3
2024-02-13T03:47:38.364Z,1000.3
2024-02-13T03:48:51.673Z,1000.3
2024-02-13T03:50:05.967Z,1000.4
2024-02-13T03:51:20.261Z,1000.4
2024-02-13T03:52:34.554Z,1000.4
2024-02-13T03:53:48.848Z,1000.4
2024-02-13T03:55:03.141Z,1000.5
2024-02-13T03:56:17.436Z,1000.5
2024-02-13T03:57:31.729Z,1000.5
2024-02-13T03:58:46.023Z,1000.5
2024-02-13T04:00:00.316Z,1000.5
2024-02-13T04:01:14.610Z,1000.5
2024-02-13T04:02:28.904Z,1000.6
2024-02-13T04:03:43.154Z,1000.6
2024-02-13T04:04:56.507Z,1000.6
2024-02-13T04:06:10.801Z,1000.6
2024-02-13T04:07:25.095Z,1000.6
2024-02-13T04:08:39.388Z,1000.6
2024-02-13T04:09:53.682Z,1000.6
2024-02-13T04:11:07.977Z,1000.6
2024-02-13T04:12:22.270Z,1000.6
2024-02-13T04:13:36.564Z,1000.7
2024-02-13T04:14:50.857Z,1000.7
2024-02-13T04:16:05.151Z,1000.7
2024-02-13T04:17:19.445Z,1000.7
2024-02-13T04:18:33.739Z,1000.7
2024-02-13T04:19:48.033Z,1000.7
2024-02-13T04:21:01.342Z,1000.7
2024-02-13T04:22:15.636Z,1000.7
2024-02-13T04:23:29.930Z,1000.7
2024-02-13T04:24:44.223Z,1000.8
2024-02-13T04:25:58.517Z,1000.8
2024-02-13T04:27:12.764Z,1000.8
2024-02-13T04:28:27.105Z,1000.8
2024-02-13T04:29:41.398Z,1000.8
2024-02-13T04:30:55.692Z,1000.8
2024-02-13T04:32:09.986Z,1000.8
2024-02-13T04:33:24.279Z,1000.8
2024-02-13T04:34:38.573Z,1000.9
2024-02-13T04:35:52.867Z,1000.9
2024-02-13T04:37:06.176Z,1000.9
2024-02-13T04:38:20.470Z,1000.9
2024-02-13T04:39:34.764Z,1000.9
2024-02-13T04:40:49.058Z,1000.9
2024-02-13T04:42:03.351Z,1001
2024-02-13T04:43:17.645Z,1001
2024-02-13T04:44:31.939Z,1001
2024-02-13T04:45:46.232Z,1001.1
2024-02-13T04:47:00.526Z,1001.1
2024-02-13T04:48:14.820Z,1001.1
2024-02-13T04:49:29.115Z,1001.1
2024-02-13T04:50:43.409Z,1001.1
2024-02-13T04:51:57.650Z,1001.1
2024-02-13T04:53:11.013Z,1001.1
2024-02-13T04:54:25.306Z,1001.1
2024-02-13T04:55:39.600Z,1001.1
2024-02-13T04:56:53.893Z,1001.1
2024-02-13T04:58:08.187Z,1001.2
2024-02-13T04:59:22.481Z,1001.2
2024-02-13T05:00:36.775Z,1001.2
2024-02-13T05:01:51.068Z,1001.2
2024-02-13T05:03:05.362Z,1001.2
2024-02-13T05:04:19.655Z,1001.2
2024-02-13T05:05:33.949Z,1001.2
2024-02-13T05:06:48.242Z,1001.2
2024-02-13T05:08:02.536Z,1001.2
2024-02-13T05:09:15.846Z,1001.2
2024-02-13T05:10:30.139Z,1001.2
2024-02-13T05:11:44.433Z,1001.3
2024-02-13T05:12:58.726Z,1001.3
2024-02-13T05:14:13.020Z,1001.3
2024-02-13T05:15:27.313Z,1001.3
2024-02-13T05:16:41.607Z,1001.3
2024-02-13T05:17:55.900Z,1001.3
2024-02-13T05:19:10.194Z,1001.4
2024-02-13T05:20:24.487Z,1001.4
2024-02-13T05:21:38.781Z,1001.4
2024-02-13T05:22:53.075Z,1001.4
2024-02-13T05:24:07.368Z,1001.4
2024-02-13T05:25:20.678Z,1001.4
2024-02-13T05:26:34.972Z,1001.4
2024-02-13T05:27:49.265Z,1001.4
2024-02-13T05:29:03.560Z,1001.4
2024-02-13T05:30:17.853Z,1001.4
2024-02-13T05:31:32.147Z,1001.4
2024-02-13T05:32:46.441Z,1001.4
2024-02-13T05:34:00.735Z,1001.4
2024-02-13T05:35:15.028Z,1001.4
2024-02-13T05:36:29.322Z,1001.4
2024-02-13T05:37:43.615Z,1001.4
2024-02-13T05:38:57.909Z,1001.5
2024-02-13T05:40:12.202Z,1001.4
2024-02-13T05:41:25.512Z,1001.5
2024-02-13T05:42:39.806Z,1001.5
2024-02-13T05:43:54.099Z,1001.5
2024-02-13T05:45:08.393Z,1001.6
2024-02-13T05:46:22.687Z,1001.6
2024-02-13T05:47:36.925Z,1001.6
2024-02-13T05:48:51.274Z,1001.6
2024-02-13T05:50:05.567Z,1001.7
2024-02-13T05:51:19.861Z,1001.7
2024-02-13T05:52:34.156Z,1001.7
2024-02-13T05:53:48.450Z,1001.7
2024-02-13T05:55:02.690Z,1001.8
2024-02-13T05:56:16.983Z,1001.8
2024-02-13T05:57:30.293Z,1001.8
2024-02-13T05:58:44.544Z,1001.8
2024-02-13T05:59:58.783Z,1001.8
2024-02-13T06:01:13.077Z,1001.9
2024-02-13T06:02:27.328Z,1001.9
2024-02-13T06:03:41.568Z,1001.9
2024-02-13T06:04:55.819Z,1001.9
2024-02-13T06:06:10.059Z,1001.9
2024-02-13T06:07:24.298Z,1002
2024-02-13T06:08:38.538Z,1001.9
2024-02-13T06:09:52.778Z,1001.9
2024-02-13T06:11:07.017Z,1002
2024-02-13T06:12:21.257Z,1002
2024-02-13T06:13:34.513Z,1002
2024-02-13T06:14:48.753Z,1002
2024-02-13T06:16:02.993Z,1002
2024-02-13T06:17:17.233Z,1002
2024-02-13T06:18:31.472Z,1002
2024-02-13T06:19:45.712Z,1002.1
2024-02-13T06:20:59.951Z,1002.1
2024-02-13T06:22:14.191Z,1002.1
2024-02-13T06:23:28.431Z,1002.1
2024-02-13T06:24:42.670Z,1002.1
2024-02-13T06:25:56.910Z,1002.1
2024-02-13T06:27:11.150Z,1002.1
2024-02-13T06:28:25.389Z,1002.1
2024-02-13T06:29:38.645Z,1002.1
2024-02-13T06:30:52.885Z,1002.1
2024-02-13T06:32:07.124Z,1002.2
2024-02-13T06:33:21.365Z,1002.2
2024-02-13T06:34:35.605Z,1002.2
2024-02-13T06:35:49.844Z,1002.2
2024-02-13T06:37:03.105Z,1002.2
2024-02-13T06:38:17.345Z,1002.2
2024-02-13T06:39:31.585Z,1002.3
2024-02-13T06:40:45.824Z,1002.3
2024-02-13T06:42:00.064Z,1002.3
2024-02-13T06:43:14.304Z,1002.3
2024-02-13T06:44:28.543Z,1002.4
2024-02-13T06:45:42.783Z,1002.4
2024-02-13T06:46:56.970Z,1002.4
2024-02-13T06:48:11.262Z,1002.5
2024-02-13T06:49:25.502Z,1002.4
2024-02-13T06:50:39.742Z,1002.4
2024-02-13T06:51:53.982Z,1002.5
2024-02-13T06:53:07.237Z,1002.5
2024-02-13T06:54:21.477Z,1002.5
2024-02-13T06:55:35.717Z,1002.5
2024-02-13T06:56:49.956Z,1002.5
2024-02-13T06:58:04.196Z,1002.6
2024-02-13T06:59:18.436Z,1002.6
2024-02-13T07:00:32.675Z,1002.6
2024-02-13T07:01:46.915Z,1002.6
2024-02-13T07:03:01.155Z,1002.7
2024-02-13T07:04:15.394Z,1002.7
2024-02-13T07:05:29.634Z,1002.7
2024-02-13T07:06:43.874Z,1002.7
2024-02-13T07:07:58.113Z,1002.7
2024-02-13T07:09:11.323Z,1002.8
2024-02-13T07:10:25.609Z,1002.8
2024-02-13T07:11:39.849Z,1002.8
2024-02-13T07:12:54.088Z,1002.8
2024-02-13T07:14:08.328Z,1002.8
2024-02-13T07:15:22.567Z,1002.9
2024-02-13T07:16:36.807Z,1002.9
2024-02-13T07:17:51.047Z,1002.9
2024-02-13T07:19:05.286Z,1003
2024-02-13T07:20:19.526Z,1003
2024-02-13T07:21:33.766Z,1003
2024-02-13T07:22:48.005Z,1003
2024-02-13T07:24:02.245Z,1003
2024-02-13T07:25:15.500Z,1003
2024-02-13T07:26:29.740Z,1003
2024-02-13T07:27:43.979Z,1003
2024-02-13T07:28:58.219Z,1003
2024-02-13T07:30:12.458Z,1003
2024-02-13T07:31:26.699Z,1003
2024-02-13T07:32:40.939Z,1003
2024-02-13T07:33:55.178Z,1003
2024-02-13T07:35:09.418Z,1003
2024-02-13T07:36:23.657Z,1003
2024-02-13T07:37:37.897Z,1003
2024-02-13T07:38:52.137Z,1003
2024-02-13T07:40:06.376Z,1003
2024-02-13T07:41:19.632Z,1003
2024-02-13T07:42:33.872Z,1003
2024-02-13T07:43:48.111Z,1003
2024-02-13T07:45:02.351Z,1003
2024-02-13T07:46:16.590Z,1003.1
2024-02-13T07:47:30.830Z,1003.1
2024-02-13T07:48:45.070Z,1003.1
2024-02-13T07:49:59.309Z,1003.1
2024-02-13T07:51:13.549Z,1003.1
2024-02-13T07:52:27.789Z,1003.2
2024-02-13T07:53:41.973Z,1003.2
2024-02-13T07:54:56.268Z,1003.2
2024-02-13T07:56:10.508Z,1003.2
2024-02-13T07:57:23.763Z,1003.2
2024-02-13T07:58:38.003Z,1003.2
2024-02-13T07:59:52.243Z,1003.2
2024-02-13T08:01:06.482Z,1003.2
2024-02-13T08:02:20.723Z,1003.2
2024-02-13T08:03:34.963Z,1003.2
2024-02-13T08:04:49.202Z,1003.2
2024-02-13T08:06:03.442Z,1003.2
2024-02-13T08:07:17.682Z,1003.2
2024-02-13T08:08:31.922Z,1003.2
2024-02-13T08:09:46.161Z,1003.2
2024-02-13T08:11:00.401Z,1003.2
2024-02-13T08:12:14.641Z,1003.2
2024-02-13T08:13:27.897Z,1003.2
2024-02-13T08:14:42.137Z,1003.2
2024-02-13T08:15:56.377Z,1003.2
2024-02-13T08:17:10.616Z,1003.2
2024-02-13T08:18:24.857Z,1003.2
2024-02-13T08:19:39.097Z,1003.2
2024-02-13T08:20:53.336Z,1003.2
2024-02-13T08:22:07.576Z,1003.2
2024-02-13T08:23:21.815Z,1003.2
2024-02-13T08:24:36.056Z,1003.2
2024-02-13T08:25:50.295Z,1003.2
2024-02-13T08:27:04.535Z,1003.2
2024-02-13T08:28:18.775Z,1003.2
2024-02-13T08:29:32.030Z,1003.2
2024-02-13T08:30:46.270Z,1003.2
2024-02-13T08:32:00.510Z,1003.2
2024-02-13T08:33:14.749Z,1003.2
2024-02-13T08:34:28.989Z,1003.2
2024-02-13T08:35:43.229Z,1003.2
2024-02-13T08:36:57.469Z,1003.3
2024-02-13T08:38:11.708Z,1003.3
2024-02-13T08:39:25.948Z,1003.3
2024-02-13T08:40:40.187Z,1003.3
2024-02-13T08:41:54.427Z,1003.3
2024-02-13T08:43:08.666Z,1003.4
2024-02-13T08:44:22.906Z,1003.4
2024-02-13T08:46:50.401Z,1003.4
2024-02-13T08:48:04.641Z,1003.4
2024-02-13T08:49:18.880Z,1003.4
2024-02-13T08:50:33.120Z,1003.4
2024-02-13T08:51:47.360Z,1003.4
2024-02-13T08:53:01.599Z,1003.4
2024-02-13T08:54:15.839Z,1003.4
2024-02-13T08:55:30.078Z,1003.4
2024-02-13T08:56:44.318Z,1003.5
2024-02-13T08:57:58.558Z,1003.5
2024-02-13T09:00:27.037Z,1003.5
2024-02-13T09:01:40.252Z,1003.5
2024-02-13T09:02:54.532Z,1003.5
2024-02-13T09:04:08.772Z,1003.5
2024-02-13T09:05:23.012Z,1003.5
2024-02-13T09:06:37.251Z,1003.5
2024-02-13T09:07:51.451Z,1003.5
2024-02-13T09:09:05.731Z,1003.6
2024-02-13T09:10:19.970Z,1003.6
2024-02-13T09:11:34.209Z,1003.6
2024-02-13T09:12:48.448Z,1003.6
2024-02-13T09:14:02.688Z,1003.6
2024-02-13T09:15:16.878Z,1003.6
2024-02-13T09:16:31.167Z,1003.6
2024-02-13T09:17:44.423Z,1003.6
2024-02-13T09:18:58.625Z,1003.5
2024-02-13T09:20:12.902Z,1003.5
2024-02-13T09:21:27.106Z,1003.6
2024-02-13T09:22:41.333Z,1003.6
2024-02-13T09:23:55.620Z,1003.6
2024-02-13T09:25:09.860Z,1003.6
2024-02-13T09:26:24.099Z,1003.6
2024-02-13T09:27:38.338Z,1003.6
2024-02-13T09:28:52.578Z,1003.6
2024-02-13T09:30:06.785Z,1003.6
2024-02-13T09:31:21.067Z,1003.6
2024-02-13T09:32:35.306Z,1003.6
2024-02-13T09:33:48.561Z,1003.5
2024-02-13T09:35:02.800Z,1003.5
2024-02-13T09:36:17.039Z,1003.5
2024-02-13T09:37:31.235Z,1003.5
2024-02-13T09:38:45.517Z,1003.5
2024-02-13T09:39:59.756Z,1003.4
2024-02-13T09:41:13.995Z,1003.4
2024-02-13T09:42:28.234Z,1003.4
2024-02-13T09:43:42.472Z,1003.4
2024-02-13T09:44:56.657Z,1003.4
2024-02-13T09:46:10.914Z,1003.3
2024-02-13T09:47:25.189Z,1003.3
2024-02-13T09:48:39.427Z,1003.3
2024-02-13T09:49:52.682Z,1003.3
2024-02-13T09:51:06.922Z,1003.3
2024-02-13T09:52:21.160Z,1003.3
2024-02-13T09:53:35.400Z,1003.4
2024-02-13T09:54:49.638Z,1003.4
2024-02-13T09:56:03.877Z,1003.4
2024-02-13T09:57:18.117Z,1003.5
2024-02-13T09:58:32.314Z,1003.5
2024-02-13T09:59:46.594Z,1003.5
2024-02-13T10:01:00.834Z,1003.5
2024-02-13T10:02:15.072Z,1003.5
2024-02-13T10:03:29.261Z,1003.4
2024-02-13T10:04:43.549Z,1003.4
2024-02-13T10:05:56.804Z,1003.5
2024-02-13T10:07:11.042Z,1003.5
2024-02-13T10:08:25.281Z,1003.5
2024-02-13T10:09:39.520Z,1003.5
2024-02-13T10:10:53.758Z,1003.5
2024-02-13T10:12:07.997Z,1003.6
2024-02-13T10:13:22.236Z,1003.6
2024-02-13T10:14:36.475Z,1003.6
2024-02-13T10:15:50.715Z,1003.6
2024-02-13T10:17:04.954Z,1003.6
2024-02-13T10:18:19.193Z,1003.6
2024-02-13T10:19:33.432Z,1003.6
2024-02-13T10:20:47.670Z,1003.7
2024-02-13T10:22:00.925Z,1003.7
2024-02-13T10:23:15.128Z,1003.7
2024-02-13T10:24:29.414Z,1003.7
2024-02-13T10:25:43.598Z,1003.7
2024-02-13T10:26:57.843Z,1003.7
2024-02-13T10:28:12.131Z,1003.7
2024-02-13T10:29:26.381Z,1003.8
2024-02-13T10:30:40.619Z,1003.7
2024-02-13T10:31:54.858Z,1003.7
2024-02-13T10:33:09.097Z,1003.7
2024-02-13T10:34:23.336Z,1003.7
2024-02-13T10:35:37.525Z,1003.8
2024-02-13T10:36:51.815Z,1003.8
2024-02-13T10:38:05.070Z,1003.8
2024-02-13T10:39:19.309Z,1003.8
2024-02-13T10:40:33.548Z,1003.9
2024-02-13T10:41:47.787Z,1003.8
2024-02-13T10:43:02.026Z,1003.8
2024-02-13T10:44:16.266Z,1003.9
2024-02-13T10:45:29.526Z,1003.8
2024-02-13T10:46:43.765Z,1003.8
2024-02-13T10:47:58.004Z,1003.8
2024-02-13T10:49:12.243Z,1003.8
2024-02-13T10:50:26.427Z,1003.8
2024-02-13T10:51:40.721Z,1003.8
2024-02-13T10:52:54.960Z,1003.8
2024-02-13T10:54:09.199Z,1003.9
2024-02-13T10:55:23.439Z,1003.9
2024-02-13T10:56:37.678Z,1003.9
2024-02-13T10:57:51.916Z,1003.9
2024-02-13T10:59:06.156Z,1003.9
2024-02-13T11:00:20.395Z,1003.9
2024-02-13T11:01:33.650Z,1004
2024-02-13T11:02:47.849Z,1004
2024-02-13T11:04:02.128Z,1004
2024-02-13T11:05:16.366Z,1004
2024-02-13T11:06:30.606Z,1004
2024-02-13T11:07:44.845Z,1004
2024-02-13T11:08:59.084Z,1004
2024-02-13T11:10:13.272Z,1004
2024-02-13T11:11:27.562Z,1004
2024-02-13T11:12:41.759Z,1004
2024-02-13T11:13:56.040Z,1004
2024-02-13T11:15:10.240Z,1004
2024-02-13T11:16:24.518Z,1004
2024-02-13T11:17:37.773Z,1004
2024-02-13T11:18:52.012Z,1004
2024-02-13T11:20:06.251Z,1004
2024-02-13T11:21:20.490Z,1004
2024-02-13T11:22:34.729Z,1003.9
2024-02-13T11:23:48.968Z,1003.9
2024-02-13T11:25:03.207Z,1004
2024-02-13T11:26:17.446Z,1003.9
2024-02-13T11:27:31.632Z,1003.9
2024-02-13T11:28:45.924Z,1003.9
2024-02-13T11:30:00.163Z,1004
2024-02-13T11:31:14.402Z,1003.9
2024-02-13T11:32:28.641Z,1003.9
2024-02-13T11:33:41.896Z,1003.9
2024-02-13T11:34:56.135Z,1003.9
2024-02-13T11:36:10.374Z,1003.9
2024-02-13T11:37:24.613Z,1003.9
2024-02-13T11:38:38.852Z,1003.9
2024-02-13T11:39:53.053Z,1003.9
2024-02-13T11:41:07.330Z,1003.9
2024-02-13T11:42:21.569Z,1003.9
2024-02-13T11:43:35.808Z,1003.9
2024-02-13T11:44:50.047Z,1003.9
2024-02-13T11:46:04.286Z,1003.9
2024-02-13T11:47:18.525Z,1003.9
2024-02-13T11:48:32.764Z,1003.9
2024-02-13T11:49:45.966Z,1003.9
2024-02-13T11:51:00.258Z,1003.9
2024-02-13T11:52:14.497Z,1004
2024-02-13T11:53:28.736Z,1004
2024-02-13T11:54:42.926Z,1004
2024-02-13T11:55:57.214Z,1003.9
2024-02-13T11:57:11.453Z,1004
2024-02-13T11:58:25.692Z,1004
2024-02-13T11:59:39.931Z,1004
2024-02-13T12:00:54.170Z,1004
2024-02-13T12:02:08.409Z,1004
2024-02-13T12:03:22.648Z,1003.9
2024-02-13T12:04:36.887Z,1003.9
2024-02-13T12:05:50.143Z,1003.9
2024-02-13T12:07:04.382Z,1003.9
2024-02-13T12:08:18.621Z,1003.9
2024-02-13T12:09:32.860Z,1003.9
2024-02-13T12:10:47.099Z,1003.9
2024-02-13T12:12:01.338Z,1003.9
2024-02-13T12:13:15.577Z,1004
2024-02-13T12:14:29.816Z,1004
2024-02-13T12:15:44.055Z,1004
2024-02-13T12:16:58.294Z,1004
2024-02-13T12:18:12.533Z,1004
2024-02-13T12:19:26.772Z,1004
2024-02-13T12:20:41.011Z,1004
2024-02-13T12:21:54.266Z,1004
2024-02-13T12:23:08.454Z,1003.9
2024-02-13T12:24:22.702Z,1003.9
2024-02-13T12:25:36.983Z,1003.9
2024-02-13T12:26:51.222Z,1003.9
2024-02-13T12:28:05.461Z,1003.9
2024-02-13T12:29:19.700Z,1003.9
2024-02-13T12:30:33.939Z,1003.9
2024-02-13T12:31:48.178Z,1003.9
2024-02-13T12:33:02.417Z,1004
2024-02-13T12:34:16.603Z,1004
2024-02-13T12:35:30.895Z,1004
2024-02-13T12:36:45.134Z,1004
2024-02-13T12:37:58.389Z,1004
2024-02-13T12:39:12.628Z,1004
2024-02-13T12:40:26.867Z,1004
2024-02-13T12:41:41.106Z,1004
2024-02-13T12:42:55.346Z,1004
2024-02-13T12:44:09.585Z,1004
2024-02-13T12:45:23.824Z,1004
2024-02-13T12:46:38.063Z,1004
2024-02-13T12:47:52.252Z,1004
2024-02-13T12:49:06.541Z,1004
2024-02-13T12:50:20.780Z,1004
2024-02-13T12:51:35.018Z,1004
2024-02-13T12:52:49.258Z,1004
2024-02-13T12:54:02.513Z,1004
2024-02-13T12:55:16.752Z,1004
2024-02-13T12:56:30.991Z,1004
2024-02-13T12:57:45.230Z,1004
2024-02-13T12:58:59.469Z,1004.1
2024-02-13T13:00:13.708Z,1004
2024-02-13T13:01:27.947Z,1004
2024-02-13T13:02:42.186Z,1004
2024-02-13T13:03:56.425Z,1004
2024-02-13T13:05:10.664Z,1004
2024-02-13T13:06:24.869Z,1004
2024-02-13T13:07:39.142Z,1004
2024-02-13T13:08:53.344Z,1004
2024-02-13T13:10:06.636Z,1004
2024-02-13T13:11:20.835Z,1004
2024-02-13T13:12:35.114Z,1004
2024-02-13T13:13:49.353Z,1004
2024-02-13T13:15:03.592Z,1004
2024-02-13T13:16:17.832Z,1004
2024-02-13T13:17:32.071Z,1003.9
2024-02-13T13:18:46.263Z,1003.9
2024-02-13T13:20:00.549Z,1003.9
2024-02-13T13:21:14.743Z,1003.9
2024-02-13T13:22:29.027Z,1003.9
2024-02-13T13:23:43.266Z,1003.9
2024-02-13T13:24:57.505Z,1003.9
2024-02-13T13:26:11.744Z,1003.9
2024-02-13T13:27:24.999Z,1003.9
2024-02-13T13:28:39.238Z,1003.9
2024-02-13T13:29:53.477Z,1003.9
2024-02-13T13:31:07.716Z,1003.9
2024-02-13T13:32:21.955Z,1003.8
2024-02-13T13:33:36.194Z,1003.9
2024-02-13T13:34:50.433Z,1003.9
2024-02-13T13:36:04.634Z,1003.9
2024-02-13T13:37:18.912Z,1003.9
2024-02-13T13:38:33.151Z,1003.9
2024-02-13T13:39:47.390Z,1003.9
2024-02-13T13:41:01.583Z,1003.9
2024-02-13T13:42:15.867Z,1003.9
2024-02-13T13:43:29.123Z,1003.9
2024-02-13T13:44:43.361Z,1003.9
2024-02-13T13:45:57.600Z,1004
2024-02-13T13:47:11.840Z,1004
2024-02-13T13:48:26.079Z,1004
2024-02-13T13:49:40.318Z,1004
2024-02-13T13:50:54.557Z,1004
2024-02-13T13:52:08.796Z,1004
2024-02-13T13:53:23.035Z,1004
2024-02-13T13:54:37.273Z,1004
2024-02-13T13:55:51.512Z,1004
2024-02-13T13:57:05.706Z,1004
2024-02-13T13:58:19.991Z,1004
2024-02-13T13:59:33.246Z,1004
2024-02-13T14:00:47.485Z,1004
2024-02-13T14:02:01.724Z,1004
2024-02-13T14:03:15.963Z,1004
2024-02-13T14:04:30.202Z,1004
2024-02-13T14:05:44.441Z,1004
2024-02-13T14:06:58.680Z,1004
2024-02-13T14:08:12.919Z,1004
2024-02-13T14:09:27.158Z,1004
2024-02-13T14:10:41.397Z,1004
2024-02-13T14:11:55.636Z,1004
2024-02-13T14:13:09.875Z,1004
2024-02-13T14:14:24.114Z,1004
2024-02-13T14:15:37.369Z,1004
2024-02-13T14:16:51.608Z,1004.1
2024-02-13T14:18:05.847Z,1004.1
2024-02-13T14:19:20.086Z,1004.1
2024-02-13T14:20:34.325Z,1004.1
2024-02-13T14:21:48.564Z,1004
2024-02-13T14:23:02.803Z,1004.1
2024-02-13T14:24:17.042Z,1004
2024-02-13T14:25:31.281Z,1004
2024-02-13T14:26:45.520Z,1004
2024-02-13T14:27:59.759Z,1004
2024-02-13T14:29:13.999Z,1004.1
2024-02-13T14:30:28.237Z,1004.1
2024-02-13T14:31:41.493Z,1004.1
2024-02-13T14:32:55.731Z,1004.1
2024-02-13T14:34:09.970Z,1004.1
2024-02-13T14:35:24.209Z,1004.1
2024-02-13T14:36:38.448Z,1004.1
2024-02-13T14:37:52.687Z,1004.1
2024-02-13T14:39:06.926Z,1004.1
2024-02-13T14:40:21.166Z,1004.1
2024-02-13T14:41:35.405Z,1004.1
2024-02-13T14:42:49.644Z,1004.1
2024-02-13T14:44:03.883Z,1004.1
2024-02-13T14:45:18.074Z,1004.1
2024-02-13T14:46:32.361Z,1004.1
2024-02-13T14:47:45.616Z,1004.1
2024-02-13T14:48:59.855Z,1004.1
2024-02-13T14:50:14.094Z,1004
2024-02-13T14:51:28.333Z,1004
2024-02-13T14:52:42.572Z,1004
2024-02-13T14:53:55.832Z,1004.1
2024-02-13T14:55:10.071Z,1004.1
2024-02-13T14:56:24.310Z,1004.1
2024-02-13T14:57:38.510Z,1004.1
2024-02-13T14:58:52.788Z,1004.1
2024-02-13T15:00:07.026Z,1004.1
2024-02-13T15:01:21.265Z,1004.1
2024-02-13T15:02:35.505Z,1004.1
2024-02-13T15:03:49.744Z,1004.1
2024-02-13T15:05:03.983Z,1004.2
2024-02-13T15:06:18.222Z,1004.2
2024-02-13T15:07:32.461Z,1004.2
2024-02-13T15:08:46.700Z,1004.2
2024-02-13T15:09:59.955Z,1004.2
2024-02-13T15:11:14.194Z,1004.2
2024-02-13T15:12:28.433Z,1004.2
2024-02-13T15:13:42.672Z,1004.2
2024-02-13T15:14:56.911Z,1004.2
2024-02-13T15:16:11.150Z,1004.2
2024-02-13T15:17:25.389Z,1004.2
2024-02-13T15:18:39.628Z,1004.2
2024-02-13T15:19:53.867Z,1004.2
2024-02-13T15:21:08.106Z,1004.2
2024-02-13T15:22:22.345Z,1004.2
2024-02-13T15:23:36.585Z,1004.2
2024-02-13T15:24:50.785Z,1004.2
2024-02-13T15:26:04.079Z,1004.2
2024-02-13T15:27:18.318Z,1004.2
2024-02-13T15:28:32.557Z,1004.2
2024-02-13T15:29:46.796Z,1004.2
2024-02-13T15:31:01.035Z,1004.3
2024-02-13T15:32:15.274Z,1004.3
2024-02-13T15:33:29.513Z,1004.3
2024-02-13T15:34:43.752Z,1004.3
2024-02-13T15:35:57.991Z,1004.3
2024-02-13T15:37:12.230Z,1004.3
2024-02-13T15:38:26.469Z,1004.3
2024-02-13T15:39:40.708Z,1004.3
2024-02-13T15:40:54.947Z,1004.3
2024-02-13T15:42:08.202Z,1004.3
2024-02-13T15:43:22.441Z,1004.3
2024-02-13T15:44:36.680Z,1004.3
2024-02-13T15:45:50.919Z,1004.3